Memphis, MO (63555)

5:09 AM CDT on July 28, 2016 (GMT -0500)
Wyacondah TWP | | Change Station

Elev 886 ft 40.67 °N, 92.45 °W | Updated 0 second ago

Clear
Clear
68.4 °F
Feels Like 68.4 °F
N
0.7
Wind Variable Wind from West
Gusts 3.1 mph

Today
High -- | Low -- °F
--% Chance of Precip.
Yesterday
High -- | Low -- °F
Precip. -- in
Pressure 29.92 in
Visibility 0.8 miles
Clouds Clear
Dew Point 67 °F
Humidity 96%
Rainfall in
Snow Depth Not available.
6:02 AM 8:27 PM
Waning Crescent, 33% visible
SPECI KIRK 281002Z AUTO 00000KT 3/4SM BR CLR 19/19 A2992 RMK AO2 T01940189
Pressure 29.92 in
Visibility 0.8 miles
Clouds Clear
Dew Point 67 °F
Humidity 96%
Rainfall in
Snow Depth Not available.
6:02 AM 8:27 PM
Waning Crescent, 33% visible
SPECI KIRK 281002Z AUTO 00000KT 3/4SM BR CLR 19/19 A2992 RMK AO2 T01940189

10-Day Weather Forecast

Almanac

Astronomy

Jul. 28, 2016 Rise Set
Actual Time
Civil Twilight
Nautical Twilight
Astronomical Twilight
Moon
Length of Visible Light
Length of Day
Tomorrow will be .
, % of the Moon is Illuminated

Today's Extremes

State Highs State Lows

Community

WunderPhotos

Upload Photos

1,928,070 photos uploaded!

WunderBlog® & News

Nearby

Air Quality

  Air Quality AQ Index Pollutant
Not available.

Snow Depth

Station Depth Elevation

Earthquake Activity

City Distance Mag. Time & Date
Minimum magnitude displayed is 2.5.

Coastal Water Temperatures

Place Temperature

Stations

Nearby Weather Stations

Station Location Temp. Windchill Dew Point Humidity Wind Precip. Elev Updated Type
                   

Watches & Warnings

There are currently no watches in effect.